Bear Lake, MI (49614)

08:53 EDT le 29 août 2016 (GMT -0400)
Maple Grove Township | | Change Station
Avis météorologiques actifs: Special Statement

Alt. 755 ft 44.41 °N, 86.03 °W | Updated 11 seconds ago

Partly Cloudy
Partiellement nuageux
56.7 ° F
Paraît 56.7 ° F
N
0.0
Vent Variable Vent de SSE
Gusts 0.0 mph

Aujourd'hui
Haut(e) -- | Bas -- ° F
--% Risque de précip.
Hier
Haut(e) -- | Bas -- ° F
Precip. -- pouce
Pression 30.31 pouce
Visibilité 10.0 Miles terrestres
Nuages Peu 200 ft
Point de rosée 56 ° F
Humidité 99%
Précipitations 0.00 pouce
Profondeur de la couche neigeuse Non disponible.
7:04 AM 8:25 PM
Lune descendante, 9% visible
METAR KMBL 291156Z AUTO 08004KT 10SM FEW002 16/15 A3026 RMK AO2 SLP264 T01560150 10156 20128 53004
Pression 30.31 pouce
Visibilité 10.0 Miles terrestres
Nuages Peu 200 ft
Point de rosée 56 ° F
Humidité 99%
Précipitations 0.00 pouce
Profondeur de la couche neigeuse Non disponible.
7:04 AM 8:25 PM
Lune descendante, 9% visible
METAR KMBL 291156Z AUTO 08004KT 10SM FEW002 16/15 A3026 RMK AO2 SLP264 T01560150 10156 20128 53004

10-Day Weather Forecast

Almanac

Astronomie

Aug. 29, 2016 Lever Coucher
Temps réel
Crépuscule civil
Crépuscule nautique
Crépuscule astronomique
Lune
Durée de lumière visible
Longueur du jour
Tomorrow will be .
, % of the Moon is Illuminated

Extrêmes aujourd'hui

State Highs State Lows

Community

WunderPhotos

Upload Photos

1,935,810 Photos téléchargées !

WunderBlog® & News

Nearby

Qualité de l'air

  Qualité de l'air Indice de la qualité de l'air Polluant
Not available.

Épaisseur de neige

Station Depth Altitude

Activité sismique

Ville Distance Mag. Time & Date
Minimum magnitude displayed is 2.5.

Températures des eaux côtières

Lieu Température

Stations

Stations météo à proximité

Emplacement de la station Température Refroidissement éolien Point de rosée Humidité Vent Precip. Alt. Mise à jour Type
                   

Watches & Warnings

Special Statement
Issued: 05:30 EDT Aug. 29, 2016 – National Weather Service

... Areas of dense fog this morning...

Areas of dense fog... reducing visibilities to less than one
quarter mile... will be found across the region this morning. If
traveling... allow extra time to reach your destination.



530 am EDT Mon Aug 29 2016

... Areas of dense fog this morning...

Areas of dense fog... reducing visibilities to less than one
quarter mile... will be found across the region this morning. If
traveling... allow extra time to reach your destination.